Hauptseite
METAR-TAF:

METAR-TAF

Flughäfen :

Flughafen Seychellen

Victoria, Mahé, Seychellen

Breite: 04-40S, Länge: 055-31E, Höhe: 3 m

Beobachtung

Neuester Wetterbericht von vor 21 Minuten, um 06:00 UTC
Wind 7 kt aus West/Nordwest, variierte zwischen West/Südwest und Nord/Nordwest
Temperatur 30°C
Luftfeuchtigkeit 70%
Luftdruck 1012 hPa
Sichtweite 10 km oder mehr
Leicht bewölkt in der Höhe von 2100 ft, Kumulonimbus.
Durchbrochene Bewölkung in der Höhe von 2300 ft

METAR: FSIA 290600Z 30007KT 240V330 9999 FEW021CB BKN023 30/24 Q1012 NOSIG

Zeit: 10:21 (06:21 UTC)

Prognose

Neuester Wetterbericht von vor 1 Stunde und 20 Minuten, um 05:01 UTC
Gültige Prognose vom 29 um 06 UTC bis 30 um 06 UTC
Wind 5 kt aus unterschiedlichen Richtungen
Sichtweite 10 km oder mehr
Aufgelockert bewölkt in der Höhe von 2200 ft

TAF: FSIA 290501Z 2906/3006 VRB05KT 9999 SCT022

Wetterbeobachtungen und Prognosen von mehr als 4000 Flughäfen (METAR und TAF Bericht).

Die verfügbaren Stationen werden durch gelbe und rote Markierungen auf der Karte dargestellt.

Führen Sie die Maus auf sie, um den Namen der Station zu sehen.

Darauf klicken, um die Beobachtung von Wetterbeobachtungen und Prognosen zu sehen.

Um die Karte zu ändern : klicken Sie auf den grünen Tasten mit einem schwarzen Kreuz Zum Vergrößern, auf den grünen Button mit einem Gedankenstrich zu verkleinern, oder auf die grünen Pfeile für benachbarte Karten.


METAR-TAF: